createdAt,value
2022-08-27T00:01:23.472Z,16.94
2022-08-27T00:03:56.315Z,16.88
2022-08-27T00:06:28.774Z,16.85
2022-08-27T00:09:02.234Z,16.92
2022-08-27T00:11:35.512Z,16.87
2022-08-27T00:14:07.936Z,16.84
2022-08-27T00:16:40.472Z,16.82
2022-08-27T00:19:12.975Z,16.80
2022-08-27T00:21:45.347Z,16.82
2022-08-27T00:24:17.848Z,16.77
2022-08-27T00:26:52.715Z,16.72
2022-08-27T00:29:25.983Z,16.67
2022-08-27T00:31:59.224Z,16.60
2022-08-27T00:34:31.719Z,16.57
2022-08-27T00:37:05.931Z,16.55
2022-08-27T00:39:38.547Z,16.54
2022-08-27T00:42:12.016Z,16.56
2022-08-27T00:44:44.498Z,16.50
2022-08-27T00:47:20.390Z,16.51
2022-08-27T00:49:55.332Z,16.44
2022-08-27T00:52:30.375Z,16.44
2022-08-27T00:55:05.772Z,16.42
2022-08-27T00:57:41.741Z,16.37
2022-08-27T01:00:17.649Z,16.37
2022-08-27T01:02:50.043Z,16.27
2022-08-27T01:05:25.716Z,16.14
2022-08-27T01:08:06.385Z,16.10
2022-08-27T01:10:39.787Z,16.14
2022-08-27T01:13:16.439Z,16.13
2022-08-27T01:15:50.383Z,16.10
2022-08-27T01:18:22.781Z,16.07
2022-08-27T01:21:00.335Z,16.04
2022-08-27T01:23:42.231Z,15.99
2022-08-27T01:26:16.713Z,15.96
2022-08-27T01:28:50.661Z,16.01
2022-08-27T01:31:23.170Z,15.93
2022-08-27T01:33:57.960Z,15.91
2022-08-27T01:36:30.563Z,15.90
2022-08-27T01:39:03.168Z,15.84
2022-08-27T01:41:38.541Z,15.78
2022-08-27T01:44:12.106Z,15.78
2022-08-27T01:46:44.969Z,15.79
2022-08-27T01:49:17.388Z,15.77
2022-08-27T01:51:49.855Z,15.68
2022-08-27T01:54:22.289Z,15.61
2022-08-27T01:56:55.538Z,15.71
2022-08-27T01:59:39.786Z,15.71
2022-08-27T02:02:16.226Z,15.66
2022-08-27T02:04:50.197Z,15.63
2022-08-27T02:07:22.675Z,15.46
2022-08-27T02:09:55.179Z,15.43
2022-08-27T02:12:28.284Z,15.41
2022-08-27T02:15:00.726Z,15.36
2022-08-27T02:17:33.666Z,15.29
2022-08-27T02:20:08.750Z,15.29
2022-08-27T02:22:41.621Z,15.32
2022-08-27T02:25:14.789Z,15.32
2022-08-27T02:27:49.089Z,15.39
2022-08-27T02:30:23.442Z,15.33
2022-08-27T02:32:55.914Z,15.36
2022-08-27T02:35:30.384Z,15.27
2022-08-27T02:38:02.806Z,15.25
2022-08-27T02:40:36.574Z,15.19
2022-08-27T02:43:09.745Z,15.16
2022-08-27T02:45:48.211Z,15.16
2022-08-27T02:48:21.030Z,15.11
2022-08-27T02:50:54.084Z,15.07
2022-08-27T02:53:33.889Z,15.16
2022-08-27T02:56:07.320Z,15.13
2022-08-27T02:58:40.870Z,15.17
2022-08-27T03:01:13.885Z,15.15
2022-08-27T03:03:46.539Z,15.16
2022-08-27T03:06:18.947Z,15.10
2022-08-27T03:08:52.996Z,15.05
2022-08-27T03:11:25.995Z,15.06
2022-08-27T03:13:59.207Z,15.08
2022-08-27T03:16:33.678Z,15.07
2022-08-27T03:19:07.225Z,15.04
2022-08-27T03:21:39.647Z,15.05
2022-08-27T03:24:14.720Z,14.99
2022-08-27T03:26:52.801Z,14.97
2022-08-27T03:29:27.675Z,15.01
2022-08-27T03:32:00.340Z,15.02
2022-08-27T03:34:32.959Z,15.02
2022-08-27T03:37:05.428Z,15.00
2022-08-27T03:39:37.942Z,14.97
2022-08-27T03:42:10.359Z,14.93
2022-08-27T03:44:44.243Z,14.90
2022-08-27T03:47:16.614Z,14.90
2022-08-27T03:49:49.366Z,14.86
2022-08-27T03:52:21.795Z,14.81
2022-08-27T03:54:54.856Z,14.76
2022-08-27T03:57:27.262Z,14.78
2022-08-27T04:00:00.725Z,14.79
2022-08-27T04:02:33.174Z,14.77
2022-08-27T04:05:06.967Z,14.77
2022-08-27T04:07:40.278Z,14.81
2022-08-27T04:10:14.133Z,14.85
2022-08-27T04:12:46.547Z,14.80
2022-08-27T04:15:19.948Z,14.79
2022-08-27T04:17:52.433Z,14.80
2022-08-27T04:20:35.068Z,14.77
2022-08-27T04:23:08.695Z,14.77
2022-08-27T04:25:41.805Z,14.73
2022-08-27T04:28:15.331Z,14.79
2022-08-27T04:30:48.513Z,14.80
2022-08-27T04:33:20.966Z,14.86
2022-08-27T04:35:58.262Z,14.84
2022-08-27T04:38:30.674Z,14.88
2022-08-27T04:41:21.759Z,14.93
2022-08-27T04:43:55.810Z,14.89
2022-08-27T04:46:31.094Z,14.93
2022-08-27T04:49:07.221Z,14.95
2022-08-27T04:51:43.450Z,15.04
2022-08-27T04:54:16.099Z,15.08
2022-08-27T04:56:49.222Z,15.05
2022-08-27T04:59:21.874Z,15.04
2022-08-27T05:01:55.137Z,15.10
2022-08-27T05:04:28.851Z,15.18
2022-08-27T05:07:01.488Z,15.25
2022-08-27T05:09:34.105Z,15.34
2022-08-27T05:12:07.434Z,15.26
2022-08-27T05:14:39.848Z,15.41
2022-08-27T05:17:12.921Z,15.49
2022-08-27T05:19:45.303Z,15.61
2022-08-27T05:22:17.846Z,15.70
2022-08-27T05:24:50.634Z,15.78
2022-08-27T05:27:23.194Z,15.91
2022-08-27T05:29:55.568Z,16.03
2022-08-27T05:32:28.808Z,16.17
2022-08-27T05:35:01.169Z,16.29
2022-08-27T05:37:33.952Z,16.44
2022-08-27T05:40:07.677Z,16.59
2022-08-27T05:42:40.163Z,16.72
2022-08-27T05:45:14.898Z,16.86
2022-08-27T05:47:48.142Z,17.02
2022-08-27T05:50:23.551Z,17.12
2022-08-27T05:52:56.359Z,17.24
2022-08-27T05:55:28.748Z,17.37
2022-08-27T05:58:01.179Z,17.53
2022-08-27T06:00:56.123Z,17.67
2022-08-27T06:03:32.156Z,17.85
2022-08-27T06:06:06.767Z,18.07
2022-08-27T06:08:39.158Z,18.27
2022-08-27T06:11:11.539Z,18.46
2022-08-27T06:13:43.959Z,18.62
2022-08-27T06:16:18.483Z,18.82
2022-08-27T06:18:51.732Z,18.99
2022-08-27T06:21:25.203Z,19.18
2022-08-27T06:23:57.690Z,19.36
2022-08-27T06:26:30.295Z,19.51
2022-08-27T06:29:04.048Z,19.67
2022-08-27T06:31:37.456Z,19.85
2022-08-27T06:34:11.934Z,20.08
2022-08-27T06:36:44.319Z,20.30
2022-08-27T06:39:16.997Z,20.54
2022-08-27T06:41:50.099Z,20.66
2022-08-27T06:44:26.435Z,20.92
2022-08-27T06:46:59.634Z,21.13
2022-08-27T06:49:33.275Z,21.32
2022-08-27T06:52:06.018Z,21.52
2022-08-27T06:54:39.566Z,21.75
2022-08-27T06:57:11.935Z,21.82
2022-08-27T06:59:44.361Z,21.69
2022-08-27T07:02:16.871Z,21.86
2022-08-27T07:04:52.634Z,22.06
2022-08-27T07:07:32.607Z,22.25
2022-08-27T07:10:09.554Z,22.35
2022-08-27T07:12:42.356Z,22.50
2022-08-27T07:15:15.070Z,22.67
2022-08-27T07:17:47.957Z,22.84
2022-08-27T07:20:21.882Z,22.95
2022-08-27T07:22:57.920Z,23.07
2022-08-27T07:25:31.546Z,23.25
2022-08-27T07:28:03.993Z,23.53
2022-08-27T07:30:37.267Z,23.78
2022-08-27T07:33:09.948Z,24.05
2022-08-27T07:35:43.681Z,24.18
2022-08-27T07:38:16.075Z,24.25
2022-08-27T07:40:48.655Z,24.40
2022-08-27T07:43:41.831Z,24.60
2022-08-27T07:46:14.330Z,24.71
2022-08-27T07:48:46.810Z,24.85
2022-08-27T07:51:21.244Z,24.73
2022-08-27T07:53:54.258Z,24.64
2022-08-27T07:56:26.812Z,24.94
2022-08-27T07:58:59.174Z,25.27
2022-08-27T08:01:31.677Z,25.52
2022-08-27T08:04:04.775Z,25.64
2022-08-27T08:06:38.947Z,25.68
2022-08-27T08:09:11.430Z,25.88
2022-08-27T08:11:44.184Z,26.07
2022-08-27T08:14:16.796Z,26.27
2022-08-27T08:16:49.797Z,26.40
2022-08-27T08:19:22.207Z,26.53
2022-08-27T08:22:00.404Z,26.40
2022-08-27T08:24:36.011Z,26.33
2022-08-27T08:27:10.737Z,26.53
2022-08-27T08:29:43.227Z,26.71
2022-08-27T08:32:15.812Z,27.05
2022-08-27T08:34:48.171Z,27.33
2022-08-27T08:37:21.258Z,27.59
2022-08-27T08:39:54.179Z,27.80
2022-08-27T08:42:35.096Z,27.83
2022-08-27T08:45:08.198Z,28.13
2022-08-27T08:47:46.869Z,28.26
2022-08-27T08:50:23.919Z,28.34
2022-08-27T08:53:02.034Z,28.52
2022-08-27T08:55:42.348Z,28.76
2022-08-27T08:58:26.406Z,29.06
2022-08-27T09:01:01.960Z,29.19
2022-08-27T09:03:40.016Z,29.33
2022-08-27T09:06:19.319Z,28.92
2022-08-27T09:08:52.570Z,28.93
2022-08-27T09:11:34.403Z,28.94
2022-08-27T09:14:20.527Z,28.93
2022-08-27T09:16:58.801Z,29.11
2022-08-27T09:19:31.275Z,29.29
2022-08-27T09:22:14.959Z,29.50
2022-08-27T09:24:58.649Z,29.82
2022-08-27T09:27:31.859Z,30.02
2022-08-27T09:30:09.819Z,30.27
2022-08-27T09:32:42.158Z,30.19
2022-08-27T09:35:15.338Z,30.42
2022-08-27T09:37:51.406Z,30.46
2022-08-27T09:40:28.951Z,30.59
2022-08-27T09:43:07.207Z,30.70
2022-08-27T09:45:47.323Z,30.63
2022-08-27T09:48:22.557Z,30.63
2022-08-27T09:50:58.078Z,30.47
2022-08-27T09:53:37.243Z,30.36
2022-08-27T09:56:23.087Z,30.55
2022-08-27T09:59:00.691Z,30.54
2022-08-27T10:01:37.870Z,30.61
2022-08-27T10:04:14.322Z,30.27
2022-08-27T10:06:49.241Z,30.54
2022-08-27T10:09:32.868Z,30.44
2022-08-27T10:12:13.416Z,30.72
2022-08-27T10:14:51.399Z,30.70
2022-08-27T10:17:34.472Z,30.77
2022-08-27T10:20:14.229Z,30.64
2022-08-27T10:22:56.610Z,30.73
2022-08-27T10:25:37.446Z,30.84
2022-08-27T10:28:21.336Z,30.70
2022-08-27T10:31:08.047Z,30.42
2022-08-27T10:33:53.495Z,30.32
2022-08-27T10:36:37.699Z,30.65
2022-08-27T10:39:18.623Z,31.13
2022-08-27T10:42:01.470Z,31.17
2022-08-27T10:44:49.653Z,31.10
2022-08-27T10:47:52.121Z,31.20
2022-08-27T10:50:30.255Z,31.52
2022-08-27T10:53:08.291Z,31.71
2022-08-27T10:55:45.229Z,31.97
2022-08-27T10:58:28.750Z,31.72
2022-08-27T11:01:11.203Z,31.78
2022-08-27T11:03:48.955Z,32.12
2022-08-27T11:06:25.620Z,31.99
2022-08-27T11:09:07.484Z,31.59
2022-08-27T11:14:43.029Z,31.74
2022-08-27T11:17:23.767Z,31.94
2022-08-27T11:20:01.174Z,32.06
2022-08-27T11:22:38.536Z,32.32
2022-08-27T11:25:35.368Z,32.29
2022-08-27T11:28:10.045Z,32.41
2022-08-27T11:30:55.854Z,32.68
2022-08-27T11:33:35.177Z,32.95
2022-08-27T11:36:47.660Z,32.95
2022-08-27T11:39:47.597Z,33.13
2022-08-27T11:42:36.658Z,32.90
2022-08-27T11:45:17.083Z,32.93
2022-08-27T11:47:54.431Z,33.05
2022-08-27T11:50:30.584Z,32.58
2022-08-27T11:53:05.780Z,32.76
2022-08-27T11:55:39.890Z,32.58
2022-08-27T11:58:25.475Z,32.26
2022-08-27T12:01:02.228Z,32.50
2022-08-27T12:03:37.281Z,32.78
2022-08-27T12:06:19.509Z,32.51
2022-08-27T12:08:52.596Z,32.37
2022-08-27T12:11:40.547Z,32.11
2022-08-27T12:14:24.654Z,32.37
2022-08-27T12:17:03.205Z,32.42
2022-08-27T12:19:52.470Z,32.52
2022-08-27T12:23:11.400Z,32.86
2022-08-27T12:25:55.866Z,32.93
2022-08-27T12:28:28.370Z,33.18
2022-08-27T12:31:04.232Z,32.56
2022-08-27T12:33:41.836Z,32.46
2022-08-27T12:36:20.007Z,32.53
2022-08-27T12:39:03.163Z,31.95
2022-08-27T12:41:44.071Z,32.12
2022-08-27T12:44:25.254Z,32.32
2022-08-27T12:47:01.268Z,32.15
2022-08-27T12:49:38.061Z,31.76
2022-08-27T12:52:30.239Z,31.81
2022-08-27T12:55:19.300Z,31.91
2022-08-27T12:58:04.364Z,31.87
2022-08-27T13:00:55.781Z,31.91
2022-08-27T13:03:33.704Z,31.68
2022-08-27T13:06:15.803Z,32.05
2022-08-27T13:08:53.370Z,32.15
2022-08-27T13:11:28.832Z,31.93
2022-08-27T13:14:07.990Z,31.74
2022-08-27T13:16:46.330Z,31.45
2022-08-27T13:19:23.699Z,31.37
2022-08-27T13:21:57.559Z,31.14
2022-08-27T13:24:32.962Z,31.15
2022-08-27T13:27:06.335Z,31.05
2022-08-27T13:29:39.859Z,31.03
2022-08-27T13:32:14.634Z,31.04
2022-08-27T13:34:47.711Z,30.54
2022-08-27T13:37:26.227Z,30.65
2022-08-27T13:39:58.678Z,30.46
2022-08-27T13:42:32.831Z,30.67
2022-08-27T13:45:07.064Z,30.78
2022-08-27T13:47:44.607Z,30.79
2022-08-27T13:50:22.060Z,30.51
2022-08-27T13:53:22.356Z,30.14
2022-08-27T13:55:56.608Z,29.97
2022-08-27T13:58:31.844Z,30.16
2022-08-27T14:01:09.684Z,30.09
2022-08-27T14:03:48.519Z,30.19
2022-08-27T14:06:25.825Z,29.99
2022-08-27T14:09:14.507Z,29.87
2022-08-27T14:11:47.368Z,29.99
2022-08-27T14:14:20.558Z,30.09
2022-08-27T14:16:58.098Z,30.13
2022-08-27T14:19:33.390Z,30.18
2022-08-27T14:22:08.756Z,30.19
2022-08-27T14:24:41.315Z,30.00
2022-08-27T14:27:16.284Z,29.78
2022-08-27T14:29:49.453Z,29.74
2022-08-27T14:32:21.844Z,29.78
2022-08-27T14:34:54.203Z,29.70
2022-08-27T14:37:26.922Z,29.67
2022-08-27T14:39:59.549Z,29.46
2022-08-27T14:42:33.555Z,29.57
2022-08-27T14:45:08.382Z,29.44
2022-08-27T14:47:42.962Z,29.33
2022-08-27T14:50:15.672Z,29.32
2022-08-27T14:52:48.300Z,29.36
2022-08-27T14:55:20.903Z,29.20
2022-08-27T14:57:53.262Z,29.14
2022-08-27T15:00:27.235Z,29.01
2022-08-27T15:02:59.607Z,28.94
2022-08-27T15:05:32.019Z,28.93
2022-08-27T15:08:04.778Z,28.86
2022-08-27T15:10:37.359Z,28.99
2022-08-27T15:13:10.674Z,28.89
2022-08-27T15:15:43.971Z,28.88
2022-08-27T15:18:17.221Z,28.78
2022-08-27T15:20:49.880Z,28.79
2022-08-27T15:23:22.313Z,28.73
2022-08-27T15:25:54.752Z,28.80
2022-08-27T15:28:27.208Z,28.75
2022-08-27T15:31:00.420Z,28.71
2022-08-27T15:33:32.914Z,28.60
2022-08-27T15:36:05.752Z,28.60
2022-08-27T15:38:38.242Z,28.50
2022-08-27T15:41:11.011Z,28.38
2022-08-27T15:43:43.516Z,28.39
2022-08-27T15:46:16.662Z,28.37
2022-08-27T15:48:49.060Z,28.42
2022-08-27T15:51:28.046Z,28.38
2022-08-27T15:54:00.719Z,28.34
2022-08-27T15:56:34.732Z,28.28
2022-08-27T15:59:07.262Z,28.21
2022-08-27T16:01:40.681Z,28.07
2022-08-27T16:04:15.097Z,28.01
2022-08-27T16:06:48.403Z,27.99
2022-08-27T16:09:21.203Z,27.97
2022-08-27T16:11:53.574Z,27.88
2022-08-27T16:14:25.953Z,27.84
2022-08-27T16:16:59.670Z,27.73
2022-08-27T16:19:32.246Z,27.65
2022-08-27T16:22:06.298Z,27.57
2022-08-27T16:24:38.724Z,27.48
2022-08-27T16:27:11.420Z,27.39
2022-08-27T16:29:43.811Z,27.23
2022-08-27T16:32:18.827Z,27.14
2022-08-27T16:34:54.911Z,26.99
2022-08-27T16:37:28.398Z,26.89
2022-08-27T16:40:00.827Z,26.74
2022-08-27T16:42:33.394Z,26.62
2022-08-27T16:45:06.623Z,26.49
2022-08-27T16:47:54.298Z,26.38
2022-08-27T16:50:33.910Z,26.27
2022-08-27T16:53:09.012Z,26.09
2022-08-27T16:55:42.938Z,25.83
2022-08-27T16:58:18.314Z,25.65
2022-08-27T17:00:52.796Z,25.48
2022-08-27T17:03:26.189Z,25.29
2022-08-27T17:05:58.838Z,25.05
2022-08-27T17:08:31.235Z,24.81
2022-08-27T17:11:09.048Z,24.66
2022-08-27T17:13:42.446Z,24.61
2022-08-27T17:16:18.750Z,24.50
2022-08-27T17:18:52.514Z,24.49
2022-08-27T17:21:29.896Z,24.39
2022-08-27T17:24:03.711Z,24.32
2022-08-27T17:26:36.744Z,24.24
2022-08-27T17:29:09.187Z,24.07
2022-08-27T17:31:42.846Z,24.03
2022-08-27T17:34:20.233Z,23.90
2022-08-27T17:36:53.403Z,23.72
2022-08-27T17:39:26.374Z,23.68
2022-08-27T17:41:58.879Z,23.61
2022-08-27T17:44:34.183Z,23.57
2022-08-27T17:47:08.331Z,23.45
2022-08-27T17:49:41.460Z,23.26
2022-08-27T17:52:15.019Z,23.23
2022-08-27T17:54:50.459Z,23.10
2022-08-27T17:57:25.490Z,22.96
2022-08-27T18:00:01.480Z,22.75
2022-08-27T18:02:39.671Z,22.56
2022-08-27T18:05:13.833Z,22.56
2022-08-27T18:07:47.193Z,22.48
2022-08-27T18:10:23.134Z,22.31
2022-08-27T18:12:55.658Z,22.34
2022-08-27T18:15:31.210Z,22.24
2022-08-27T18:18:04.560Z,22.07
2022-08-27T18:20:42.680Z,22.09
2022-08-27T18:23:15.497Z,22.15
2022-08-27T18:25:48.111Z,22.06
2022-08-27T18:28:21.547Z,21.94
2022-08-27T18:30:54.473Z,21.93
2022-08-27T18:33:26.936Z,21.89
2022-08-27T18:36:00.391Z,21.85
2022-08-27T18:38:32.805Z,21.54
2022-08-27T18:41:08.336Z,21.54
2022-08-27T18:43:41.830Z,21.52
2022-08-27T18:46:15.080Z,21.49
2022-08-27T18:48:48.758Z,21.40
2022-08-27T18:51:22.149Z,21.31
2022-08-27T18:53:54.595Z,21.21
2022-08-27T18:56:27.055Z,21.12
2022-08-27T18:58:59.477Z,21.00
2022-08-27T19:01:32.095Z,20.96
2022-08-27T19:04:05.087Z,20.88
2022-08-27T19:06:38.180Z,20.90
2022-08-27T19:09:10.695Z,20.88
2022-08-27T19:11:43.150Z,20.88
2022-08-27T19:14:15.569Z,20.88
2022-08-27T19:16:53.022Z,20.83
2022-08-27T19:19:26.607Z,20.74
2022-08-27T19:22:00.924Z,20.66
2022-08-27T19:24:40.115Z,20.60
2022-08-27T19:27:13.462Z,20.55
2022-08-27T19:29:46.095Z,20.58
2022-08-27T19:32:18.604Z,20.55
2022-08-27T19:34:52.392Z,20.50
2022-08-27T19:37:28.932Z,20.50
2022-08-27T19:40:01.477Z,20.48
2022-08-27T19:42:34.478Z,20.48
2022-08-27T19:45:08.705Z,20.47
2022-08-27T19:47:41.115Z,20.39
2022-08-27T19:50:16.003Z,20.37
2022-08-27T19:52:49.856Z,20.22
2022-08-27T19:55:22.317Z,20.25
2022-08-27T19:57:54.806Z,20.19
2022-08-27T20:00:27.793Z,20.15
2022-08-27T20:03:00.433Z,20.05
2022-08-27T20:05:32.904Z,19.91
2022-08-27T20:08:06.264Z,19.92
2022-08-27T20:10:38.703Z,19.79
2022-08-27T20:13:11.623Z,19.79
2022-08-27T20:15:44.063Z,19.78
2022-08-27T20:18:20.723Z,19.77
2022-08-27T20:20:53.242Z,19.72
2022-08-27T20:23:27.164Z,19.65
2022-08-27T20:26:01.412Z,19.62
2022-08-27T20:28:41.996Z,19.58
2022-08-27T20:31:14.722Z,19.58
2022-08-27T20:33:47.187Z,19.55
2022-08-27T20:36:22.206Z,19.52
2022-08-27T20:38:55.428Z,19.51
2022-08-27T20:41:28.634Z,19.42
2022-08-27T20:44:01.443Z,19.34
2022-08-27T20:46:34.232Z,19.27
2022-08-27T20:49:07.255Z,19.25
2022-08-27T20:52:02.251Z,19.27
2022-08-27T20:54:33.378Z,19.19
2022-08-27T20:57:05.876Z,19.18
2022-08-27T20:59:57.279Z,19.17
2022-08-27T21:02:30.234Z,19.01
2022-08-27T21:05:08.047Z,18.99
2022-08-27T21:07:41.615Z,18.96
2022-08-27T21:10:15.166Z,18.89
2022-08-27T21:12:48.734Z,18.87
2022-08-27T21:15:21.252Z,18.75
2022-08-27T21:17:53.596Z,18.90
2022-08-27T21:20:26.019Z,18.91
2022-08-27T21:22:58.960Z,18.87
2022-08-27T21:25:32.051Z,18.83
2022-08-27T21:28:06.731Z,18.75
2022-08-27T21:30:39.294Z,18.72
2022-08-27T21:33:11.714Z,18.72
2022-08-27T21:35:44.173Z,18.71
2022-08-27T21:38:16.606Z,18.64
2022-08-27T21:40:49.686Z,18.69
2022-08-27T21:43:22.218Z,18.68
2022-08-27T21:45:55.743Z,18.70
2022-08-27T21:48:28.453Z,18.66
2022-08-27T21:51:07.426Z,18.60
2022-08-27T21:53:40.118Z,18.61
2022-08-27T21:56:16.043Z,18.49
2022-08-27T21:58:48.415Z,18.49
2022-08-27T22:01:21.037Z,18.47
2022-08-27T22:03:54.487Z,18.45
2022-08-27T22:06:26.901Z,18.46
2022-08-27T22:08:59.666Z,18.43
2022-08-27T22:11:32.760Z,18.45
2022-08-27T22:14:05.159Z,18.44
2022-08-27T22:16:37.602Z,18.42
2022-08-27T22:19:10.024Z,18.40
2022-08-27T22:21:42.951Z,18.46
2022-08-27T22:24:15.586Z,18.29
2022-08-27T22:26:48.667Z,18.35
2022-08-27T22:29:21.195Z,18.30
2022-08-27T22:31:53.584Z,18.25
2022-08-27T22:34:25.990Z,18.22
2022-08-27T22:36:58.401Z,18.20
2022-08-27T22:39:31.037Z,18.14
2022-08-27T22:42:04.610Z,18.11
2022-08-27T22:44:39.715Z,18.11
2022-08-27T22:47:14.177Z,18.13
2022-08-27T22:49:46.562Z,18.14
2022-08-27T22:52:18.970Z,18.11
2022-08-27T22:54:52.234Z,18.12
2022-08-27T22:57:28.150Z,18.09
2022-08-27T23:00:00.527Z,18.07
2022-08-27T23:02:33.063Z,18.05
2022-08-27T23:05:06.955Z,18.03
2022-08-27T23:07:39.645Z,18.04
2022-08-27T23:10:15.356Z,18.01
2022-08-27T23:12:48.535Z,17.95
2022-08-27T23:15:23.123Z,17.96
2022-08-27T23:17:56.442Z,17.95
2022-08-27T23:20:29.260Z,17.94
2022-08-27T23:23:02.593Z,17.89
2022-08-27T23:25:53.389Z,17.87
2022-08-27T23:28:26.620Z,17.89
2022-08-27T23:30:59.415Z,17.89
2022-08-27T23:33:31.899Z,17.77
2022-08-27T23:36:04.695Z,17.85
2022-08-27T23:38:37.158Z,17.82
2022-08-27T23:41:09.882Z,17.88
2022-08-27T23:43:44.290Z,17.82
2022-08-27T23:46:16.750Z,17.78
2022-08-27T23:48:49.194Z,17.77
2022-08-27T23:51:21.714Z,17.73
2022-08-27T23:53:54.160Z,17.65
2022-08-27T23:56:29.969Z,17.65
2022-08-27T23:59:04.430Z,17.57
